Time;durP1;ratioP1;P1;durP2;ratioP2;P2;SDS_P1;SDS_P2;PMS_P1;PMS_P2;Temp;Humidity;BMP_temperature;BMP_pressure;BME280_temperature;BME280_humidity;BME280_pressure;Samples;Min_cycle;Max_cycle;Signal;HPM_P1;HPM_P2
2023/08/14 00:01:52;;;;;;;;;;;27.80;56.90;;;;;;5055939;28;43216;-88
2023/08/14 00:04:17;;;;;;;;;;;28.00;58.00;;;;;;5026301;28;43111;-88
2023/08/14 00:06:43;;;;;;;;;;;27.90;57.50;;;;;;5182449;22;44729;-84
2023/08/14 00:09:08;;;;;;;;;;;28.00;55.50;;;;;;5067452;28;43224;-87
2023/08/14 00:11:34;;;;;;;;;;;28.00;55.60;;;;;;5066493;28;43065;-88
2023/08/14 00:14:07;;;;;;;;;;;27.90;55.60;;;;;;5074882;28;43102;-87
2023/08/14 00:16:32;;;;;;;;;;;27.90;55.50;;;;;;5074993;28;43893;-87
2023/08/14 00:19:04;;;;;;;;;;;27.90;55.60;;;;;;5063295;28;42914;-86
2023/08/14 00:21:33;;;;;;;;;;;31.60;57.50;;;;;;5076653;28;44113;-87
2023/08/14 00:23:58;;;;;;;;;;;28.10;55.00;;;;;;5068742;28;43097;-86
2023/08/14 00:26:24;;;;;;;;;;;27.90;54.70;;;;;;5051599;28;44590;-88
2023/08/14 00:28:49;;;;;;;;;;;28.00;56.70;;;;;;5058204;28;44005;-87
2023/08/14 00:31:16;;;;;;;;;;;28.00;55.70;;;;;;5080808;28;43118;-87
2023/08/14 00:33:42;;;;;;;;;;;28.00;55.30;;;;;;5051642;28;42982;-87
2023/08/14 00:36:07;;;;;;;;;;;27.90;56.30;;;;;;5067356;28;45090;-86
2023/08/14 00:38:33;;;;;;;;;;;28.00;55.20;;;;;;5073672;28;43097;-87
2023/08/14 00:40:59;;;;;;;;;;;27.80;55.50;;;;;;5065318;28;43091;-86
2023/08/14 00:43:24;;;;;;;;;;;27.90;55.10;;;;;;5064519;28;43001;-88
2023/08/14 00:45:52;;;;;;;;;;;28.00;56.40;;;;;;5046701;28;44102;-87
2023/08/14 00:48:18;;;;;;;;;;;26.60;53.80;;;;;;5075381;28;43285;-87
2023/08/14 00:50:44;;;;;;;;;;;27.90;56.10;;;;;;5054237;28;44119;-87
2023/08/14 00:53:20;;;;;;;;;;;28.00;54.90;;;;;;5048532;28;43205;-87
2023/08/14 00:55:46;;;;;;;;;;;29.40;54.70;;;;;;5046462;28;45109;-88
2023/08/14 00:58:14;;;;;;;;;;;27.80;53.40;;;;;;5054668;28;43287;-87
2023/08/14 01:00:43;;;;;;;;;;;27.80;52.60;;;;;;5069329;28;63605;-87
2023/08/14 01:03:20;;;;;;;;;;;28.00;53.30;;;;;;5067165;28;43065;-87
2023/08/14 01:05:46;;;;;;;;;;;27.90;52.60;;;;;;5064009;28;43376;-87
2023/08/14 01:08:17;;;;;;;;;;;27.80;53.50;;;;;;5057174;28;43189;-87
2023/08/14 01:10:43;;;;;;;;;;;29.90;54.90;;;;;;5065601;28;43906;-86
2023/08/14 01:13:27;;;;;;;;;;;27.80;53.50;;;;;;5065050;28;43301;-88
2023/08/14 01:15:55;;;;;;;;;;;29.70;54.60;;;;;;5056674;28;43885;-87
2023/08/14 01:18:31;;;;;;;;;;;31.80;57.80;;;;;;5045269;28;43213;-87
2023/08/14 01:21:11;;;;;;;;;;;27.90;54.70;;;;;;5069780;28;44030;-88
2023/08/14 01:23:56;;;;;;;;;;;27.70;52.70;;;;;;5045690;28;43140;-87
2023/08/14 01:26:22;;;;;;;;;;;27.80;52.60;;;;;;5058226;28;43719;-87
2023/08/14 01:28:48;;;;;;;;;;;27.90;53.40;;;;;;5052656;28;42959;-87
2023/08/14 01:31:14;;;;;;;;;;;27.90;53.70;;;;;;5067268;28;44961;-88
2023/08/14 01:33:39;;;;;;;;;;;27.80;54.90;;;;;;5079076;28;43139;-88
2023/08/14 01:36:14;;;;;;;;;;;27.90;53.70;;;;;;5061744;28;42896;-88
2023/08/14 01:38:49;;;;;;;;;;;28.30;51.40;;;;;;5056997;28;42942;-87
2023/08/14 01:41:20;;;;;;;;;;;27.70;52.10;;;;;;5051120;28;44653;-86
2023/08/14 01:43:52;;;;;;;;;;;27.70;51.80;;;;;;5079095;28;42819;-88
2023/08/14 01:46:18;;;;;;;;;;;27.80;50.40;;;;;;5040731;28;45405;-87
2023/08/14 01:48:45;;;;;;;;;;;27.70;52.60;;;;;;5048417;28;43242;-87
2023/08/14 01:51:11;;;;;;;;;;;27.60;52.50;;;;;;5063876;28;43125;-86
2023/08/14 01:53:42;;;;;;;;;;;27.60;53.40;;;;;;5069949;28;42998;-86
2023/08/14 01:56:08;;;;;;;;;;;27.80;51.70;;;;;;5062606;28;43203;-86
2023/08/14 01:58:33;;;;;;;;;;;27.60;53.60;;;;;;5049821;28;43106;-86
2023/08/14 02:00:59;;;;;;;;;;;27.70;53.10;;;;;;5075408;28;43395;-86
2023/08/14 02:03:27;;;;;;;;;;;27.60;54.80;;;;;;5050171;28;43138;-86
2023/08/14 02:05:53;;;;;;;;;;;27.50;53.20;;;;;;5045853;28;45219;-87
2023/08/14 02:08:18;;;;;;;;;;;27.80;53.10;;;;;;5074736;28;43160;-87
2023/08/14 02:10:46;;;;;;;;;;;27.80;54.40;;;;;;5045638;28;43615;-87
2023/08/14 02:13:12;;;;;;;;;;;27.70;52.90;;;;;;5068904;28;43364;-87
2023/08/14 02:15:37;;;;;;;;;;;27.60;53.80;;;;;;5046478;28;45465;-86
2023/08/14 02:18:03;;;;;;;;;;;28.00;53.60;;;;;;5056734;28;42914;-86
2023/08/14 02:20:28;;;;;;;;;;;27.70;54.20;;;;;;5050908;28;45486;-86
2023/08/14 02:22:54;;;;;;;;;;;27.60;53.10;;;;;;5075778;28;42918;-86
2023/08/14 02:25:22;;;;;;;;;;;27.60;54.10;;;;;;5067419;28;43994;-87
2023/08/14 02:27:50;;;;;;;;;;;28.00;52.00;;;;;;5074359;28;43074;-86
2023/08/14 02:30:41;;;;;;;;;;;27.40;52.20;;;;;;5062500;28;43685;-86
2023/08/14 02:33:07;;;;;;;;;;;27.10;51.60;;;;;;5054993;28;43012;-86
2023/08/14 02:35:35;;;;;;;;;;;28.00;54.20;;;;;;5071937;28;43929;-87
2023/08/14 02:38:07;;;;;;;;;;;27.50;52.50;;;;;;5047689;28;43030;-86
2023/08/14 02:40:32;;;;;;;;;;;26.70;51.00;;;;;;5064708;28;43706;-86
2023/08/14 02:42:59;;;;;;;;;;;27.40;52.40;;;;;;5049465;28;42998;-87
2023/08/14 02:45:45;;;;;;;;;;;27.30;52.50;;;;;;5069326;28;43065;-85
2023/08/14 02:48:14;;;;;;;;;;;28.50;55.50;;;;;;5047135;28;43215;-86
2023/08/14 02:50:39;;;;;;;;;;;31.20;54.30;;;;;;5043691;28;44825;-87
2023/08/14 02:53:05;;;;;;;;;;;27.50;52.60;;;;;;5057542;28;43102;-89
2023/08/14 02:55:30;;;;;;;;;;;27.60;52.40;;;;;;5064815;28;44284;-87
2023/08/14 02:57:56;;;;;;;;;;;27.50;52.20;;;;;;5046020;28;43095;-86
2023/08/14 03:00:21;;;;;;;;;;;27.50;52.10;;;;;;5055766;28;44408;-88
2023/08/14 03:02:47;;;;;;;;;;;27.60;51.80;;;;;;5069365;28;43341;-87
2023/08/14 03:05:13;;;;;;;;;;;27.50;51.80;;;;;;5066688;28;43560;-86
2023/08/14 03:07:38;;;;;;;;;;;29.80;53.30;;;;;;5072481;28;43024;-87
2023/08/14 03:10:05;;;;;;;;;;;27.40;51.20;;;;;;5077991;28;43025;-86
2023/08/14 03:12:30;;;;;;;;;;;27.40;50.30;;;;;;5059954;28;43200;-87
2023/08/14 03:14:56;;;;;;;;;;;27.40;50.70;;;;;;5069226;28;42928;-87
2023/08/14 03:17:21;;;;;;;;;;;27.30;50.90;;;;;;5072564;28;42996;-87
2023/08/14 03:19:47;;;;;;;;;;;27.40;51.20;;;;;;5068966;28;43732;-86
2023/08/14 03:22:13;;;;;;;;;;;27.40;51.10;;;;;;5070817;28;43163;-87
2023/08/14 03:24:53;;;;;;;;;;;27.30;53.10;;;;;;5069209;28;42965;-87
2023/08/14 03:27:18;;;;;;;;;;;27.30;51.00;;;;;;5051120;28;43246;-87
2023/08/14 03:29:47;;;;;;;;;;;27.40;51.40;;;;;;5070039;28;42995;-87
2023/08/14 03:32:12;;;;;;;;;;;27.40;50.00;;;;;;5069214;28;43260;-87
2023/08/14 03:35:07;;;;;;;;;;;27.20;51.70;;;;;;5046797;28;44241;-86
2023/08/14 03:37:45;;;;;;;;;;;27.30;51.70;;;;;;5058962;28;42928;-86
2023/08/14 03:40:19;;;;;;;;;;;27.20;49.90;;;;;;5069181;28;42868;-87
2023/08/14 03:42:45;;;;;;;;;;;27.20;49.80;;;;;;5049871;28;44023;-86
2023/08/14 03:45:13;;;;;;;;;;;27.30;51.90;;;;;;5057620;28;45067;-86
2023/08/14 03:47:39;;;;;;;;;;;27.20;51.90;;;;;;5069139;28;43061;-87
2023/08/14 03:50:05;;;;;;;;;;;27.20;52.20;;;;;;5045080;28;44339;-86
2023/08/14 03:52:30;;;;;;;;;;;27.20;52.30;;;;;;5055153;28;43128;-86
2023/08/14 03:54:59;;;;;;;;;;;27.30;52.50;;;;;;5073911;28;42990;-87
2023/08/14 03:57:24;;;;;;;;;;;27.20;50.80;;;;;;5069377;28;43051;-86
2023/08/14 03:59:50;;;;;;;;;;;27.30;52.40;;;;;;5083233;28;43335;-87
2023/08/14 04:02:15;;;;;;;;;;;27.30;52.20;;;;;;5047445;28;43060;-81
2023/08/14 04:04:41;;;;;;;;;;;27.20;52.40;;;;;;5071042;28;43790;-83
2023/08/14 04:07:07;;;;;;;;;;;27.20;52.90;;;;;;5064202;28;43057;-84
2023/08/14 04:09:32;;;;;;;;;;;27.70;53.10;;;;;;5045565;28;45344;-84
2023/08/14 04:12:00;;;;;;;;;;;27.20;52.80;;;;;;5043736;28;43058;-84
2023/08/14 04:14:26;;;;;;;;;;;27.10;52.60;;;;;;5044997;28;44554;-83
2023/08/14 04:16:51;;;;;;;;;;;27.10;53.30;;;;;;5039894;28;43579;-84
2023/08/14 04:19:18;;;;;;;;;;;27.20;53.20;;;;;;5062791;28;43030;-84
2023/08/14 04:21:44;;;;;;;;;;;27.10;53.00;;;;;;5056231;28;42944;-84
2023/08/14 04:24:10;;;;;;;;;;;27.00;53.30;;;;;;5058903;28;43627;-85
2023/08/14 04:26:39;;;;;;;;;;;27.10;53.00;;;;;;5061585;28;42999;-84
2023/08/14 04:29:07;;;;;;;;;;;26.90;52.70;;;;;;5024900;28;44692;-84
2023/08/14 04:31:36;;;;;;;;;;;26.80;52.40;;;;;;5063176;28;43001;-84
2023/08/14 04:34:02;;;;;;;;;;;27.30;50.60;;;;;;5062022;28;43419;-85
2023/08/14 04:36:29;;;;;;;;;;;26.90;52.10;;;;;;5051636;28;42975;-84
2023/08/14 04:38:54;;;;;;;;;;;26.90;52.40;;;;;;5064930;28;43009;-84
2023/08/14 04:41:20;;;;;;;;;;;27.00;52.80;;;;;;5045391;28;43139;-84
2023/08/14 04:43:45;;;;;;;;;;;27.30;52.50;;;;;;5064346;28;42954;-84
2023/08/14 04:46:11;;;;;;;;;;;27.10;52.10;;;;;;5059712;28;42975;-84
2023/08/14 04:48:37;;;;;;;;;;;27.00;51.90;;;;;;5028784;28;43561;-84
2023/08/14 04:51:04;;;;;;;;;;;27.00;51.90;;;;;;5037179;28;43116;-83
2023/08/14 04:53:30;;;;;;;;;;;27.10;51.70;;;;;;5058541;28;44644;-84
2023/08/14 04:55:55;;;;;;;;;;;27.30;51.70;;;;;;5028584;28;43014;-84
2023/08/14 04:58:21;;;;;;;;;;;27.40;51.70;;;;;;5053549;28;43643;-84
2023/08/14 05:00:46;;;;;;;;;;;27.30;51.40;;;;;;5038354;28;42970;-85
2023/08/14 05:03:12;;;;;;;;;;;27.50;51.60;;;;;;5051899;28;42994;-84
2023/08/14 05:05:37;;;;;;;;;;;27.20;51.20;;;;;;5027007;28;43019;-85
2023/08/14 05:08:03;;;;;;;;;;;27.00;51.10;;;;;;5069890;28;43387;-84
2023/08/14 05:10:28;;;;;;;;;;;27.30;50.70;;;;;;5073384;28;42953;-84
2023/08/14 05:12:55;;;;;;;;;;;27.70;51.50;;;;;;5073428;28;43541;-84
2023/08/14 05:15:21;;;;;;;;;;;27.10;51.60;;;;;;5064054;28;42952;-84
2023/08/14 05:17:46;;;;;;;;;;;27.10;51.70;;;;;;5073228;28;43748;-84
2023/08/14 05:20:12;;;;;;;;;;;27.00;51.90;;;;;;5051324;28;42831;-84
2023/08/14 05:22:38;;;;;;;;;;;27.20;52.10;;;;;;5066238;28;43021;-84
2023/08/14 05:25:03;;;;;;;;;;;27.10;52.60;;;;;;5047655;28;43055;-84
2023/08/14 05:27:31;;;;;;;;;;;27.10;51.90;;;;;;5070831;28;42951;-84
2023/08/14 05:29:57;;;;;;;;;;;27.10;52.70;;;;;;5075989;28;42958;-85
2023/08/14 05:32:22;;;;;;;;;;;27.10;52.20;;;;;;5064732;28;43040;-83
2023/08/14 05:34:48;;;;;;;;;;;27.10;51.50;;;;;;5077931;28;43072;-82
2023/08/14 05:37:13;;;;;;;;;;;27.40;52.90;;;;;;5070032;28;43189;-85
2023/08/14 05:39:39;;;;;;;;;;;27.20;51.70;;;;;;5075007;28;43187;-84
2023/08/14 05:42:04;;;;;;;;;;;27.20;52.30;;;;;;5076403;28;43503;-84
2023/08/14 05:44:30;;;;;;;;;;;27.00;52.40;;;;;;5056089;28;42995;-85
2023/08/14 05:46:55;;;;;;;;;;;27.20;52.70;;;;;;5050523;28;45442;-86
2023/08/14 05:49:21;;;;;;;;;;;27.10;52.60;;;;;;5072237;28;43123;-84
2023/08/14 05:51:47;;;;;;;;;;;27.30;52.60;;;;;;5072634;28;44028;-84
2023/08/14 05:54:12;;;;;;;;;;;27.20;51.90;;;;;;5072030;28;43008;-84
2023/08/14 05:56:38;;;;;;;;;;;27.20;52.40;;;;;;5066419;28;42892;-85
2023/08/14 05:59:03;;;;;;;;;;;27.20;52.60;;;;;;5050066;28;42980;-87
2023/08/14 06:01:29;;;;;;;;;;;27.30;52.60;;;;;;5055145;28;45789;-87
2023/08/14 06:03:55;;;;;;;;;;;27.30;52.60;;;;;;5050046;28;43121;-84
2023/08/14 06:06:20;;;;;;;;;;;27.40;52.40;;;;;;5065372;28;42913;-83
2023/08/14 06:08:46;;;;;;;;;;;27.40;52.10;;;;;;5077234;28;43449;-84
2023/08/14 06:11:11;;;;;;;;;;;27.30;51.90;;;;;;5076242;28;42863;-85
2023/08/14 06:13:37;;;;;;;;;;;27.40;51.70;;;;;;5048682;28;43358;-83
2023/08/14 06:16:02;;;;;;;;;;;27.50;51.80;;;;;;5065122;28;42982;-88
2023/08/14 06:18:28;;;;;;;;;;;29.00;52.60;;;;;;5075836;28;42883;-84
2023/08/14 06:20:53;;;;;;;;;;;27.30;51.20;;;;;;5054247;28;45396;-85
2023/08/14 06:23:19;;;;;;;;;;;27.10;51.50;;;;;;5048177;28;43185;-84
2023/08/14 06:25:44;;;;;;;;;;;27.40;51.70;;;;;;5070981;28;43005;-84
2023/08/14 06:28:10;;;;;;;;;;;27.40;51.20;;;;;;5058094;28;42919;-85
2023/08/14 06:30:35;;;;;;;;;;;27.30;51.70;;;;;;5072789;28;43046;-84
2023/08/14 06:33:01;;;;;;;;;;;27.60;52.40;;;;;;5069178;28;43044;-86
2023/08/14 06:35:27;;;;;;;;;;;27.60;52.20;;;;;;5051664;28;45083;-86
2023/08/14 06:37:52;;;;;;;;;;;27.60;51.30;;;;;;5050016;28;42990;-85
2023/08/14 06:40:18;;;;;;;;;;;27.60;52.20;;;;;;5062839;27;43546;-84
2023/08/14 06:42:43;;;;;;;;;;;27.70;52.10;;;;;;5054538;28;43032;-87
2023/08/14 06:45:09;;;;;;;;;;;27.60;52.60;;;;;;5059941;28;43694;-86
2023/08/14 06:47:41;;;;;;;;;;;27.50;52.10;;;;;;5072816;28;43148;-87
2023/08/14 06:50:07;;;;;;;;;;;27.60;52.60;;;;;;5073260;28;44243;-84
2023/08/14 06:52:32;;;;;;;;;;;27.60;52.10;;;;;;5062515;28;43042;-87
2023/08/14 06:54:58;;;;;;;;;;;27.60;52.90;;;;;;5075465;28;43587;-85
2023/08/14 06:57:23;;;;;;;;;;;27.60;53.00;;;;;;5069200;28;43038;-86
2023/08/14 06:59:51;;;;;;;;;;;27.60;53.10;;;;;;5058488;28;43346;-84
2023/08/14 07:02:17;;;;;;;;;;;27.70;53.20;;;;;;5072936;28;43043;-86
2023/08/14 07:04:43;;;;;;;;;;;27.80;53.70;;;;;;5072493;28;43541;-79
2023/08/14 07:07:08;;;;;;;;;;;27.60;53.00;;;;;;5069655;28;43214;-81
2023/08/14 07:09:34;;;;;;;;;;;27.60;51.50;;;;;;5068193;28;42990;-82
2023/08/14 07:11:59;;;;;;;;;;;27.90;52.30;;;;;;5076073;28;43219;-80
2023/08/14 07:14:25;;;;;;;;;;;27.60;52.10;;;;;;5072999;28;43330;-80
2023/08/14 07:16:50;;;;;;;;;;;27.60;52.30;;;;;;5068115;28;42912;-81
2023/08/14 07:19:17;;;;;;;;;;;27.70;52.50;;;;;;5073937;28;43080;-82
2023/08/14 07:21:43;;;;;;;;;;;27.90;52.40;;;;;;5077758;28;42974;-81
2023/08/14 07:24:09;;;;;;;;;;;27.70;52.90;;;;;;5053969;28;44500;-81
2023/08/14 07:26:34;;;;;;;;;;;27.80;53.10;;;;;;5066699;28;42879;-80
2023/08/14 07:29:00;;;;;;;;;;;27.80;54.00;;;;;;5081995;28;43373;-80
2023/08/14 07:31:26;;;;;;;;;;;27.90;54.20;;;;;;5065743;28;42782;-80
2023/08/14 07:33:51;;;;;;;;;;;27.80;53.80;;;;;;5075889;28;42937;-81
2023/08/14 07:36:17;;;;;;;;;;;28.30;54.50;;;;;;5069991;28;42973;-79
2023/08/14 07:38:42;;;;;;;;;;;27.80;53.90;;;;;;5073563;28;43985;-81
2023/08/14 07:41:08;;;;;;;;;;;27.70;53.90;;;;;;5068371;28;43024;-80
2023/08/14 07:43:33;;;;;;;;;;;27.80;54.20;;;;;;5073717;28;43711;-81
2023/08/14 07:45:59;;;;;;;;;;;27.90;54.30;;;;;;5072311;28;42983;-80
2023/08/14 07:48:24;;;;;;;;;;;27.90;54.10;;;;;;5069932;28;43859;-80
2023/08/14 07:50:50;;;;;;;;;;;27.90;54.10;;;;;;5066942;28;43267;-80
2023/08/14 07:53:16;;;;;;;;;;;27.70;54.10;;;;;;5065281;28;43542;-79
2023/08/14 07:55:41;;;;;;;;;;;27.80;54.30;;;;;;5063633;28;42912;-83
2023/08/14 07:58:07;;;;;;;;;;;28.00;53.90;;;;;;5071487;28;43814;-83
2023/08/14 08:00:32;;;;;;;;;;;27.80;54.20;;;;;;5067759;28;42951;-81
2023/08/14 08:02:58;;;;;;;;;;;27.90;54.20;;;;;;5081578;28;42911;-80
2023/08/14 08:05:23;;;;;;;;;;;28.00;54.40;;;;;;5073986;28;42974;-81
2023/08/14 08:07:49;;;;;;;;;;;27.90;54.10;;;;;;5068276;28;43743;-81
2023/08/14 08:10:15;;;;;;;;;;;27.60;54.10;;;;;;5073882;28;43249;-83
2023/08/14 08:12:40;;;;;;;;;;;28.00;53.00;;;;;;5065627;28;45425;-81
2023/08/14 08:15:06;;;;;;;;;;;27.90;53.00;;;;;;5062972;28;43298;-81
2023/08/14 08:17:31;;;;;;;;;;;27.90;53.30;;;;;;5063991;28;44460;-80
2023/08/14 08:19:57;;;;;;;;;;;27.90;53.60;;;;;;5066056;28;43167;-81
2023/08/14 08:22:22;;;;;;;;;;;27.80;53.70;;;;;;5066969;28;43969;-86
2023/08/14 08:24:48;;;;;;;;;;;27.90;54.00;;;;;;5071155;28;43085;-80
2023/08/14 08:27:14;;;;;;;;;;;27.80;54.00;;;;;;5058381;28;43171;-89
2023/08/14 08:29:39;;;;;;;;;;;28.00;54.10;;;;;;5061474;28;43017;-80
2023/08/14 08:32:05;;;;;;;;;;;28.00;54.30;;;;;;5068739;28;42981;-79
2023/08/14 08:34:30;;;;;;;;;;;27.90;54.20;;;;;;5059154;28;43134;-80
2023/08/14 08:36:56;;;;;;;;;;;28.20;54.30;;;;;;5069401;28;43451;-81
2023/08/14 08:39:21;;;;;;;;;;;28.10;55.40;;;;;;5052272;28;43067;-82
2023/08/14 08:41:48;;;;;;;;;;;28.20;54.90;;;;;;5075157;28;42915;-82
2023/08/14 08:44:13;;;;;;;;;;;28.00;54.80;;;;;;5072649;28;42967;-82
2023/08/14 08:46:47;;;;;;;;;;;28.00;55.10;;;;;;5061207;28;43017;-83
2023/08/14 08:49:13;;;;;;;;;;;28.20;52.80;;;;;;5071422;28;43026;-88
2023/08/14 08:51:39;;;;;;;;;;;28.10;55.00;;;;;;5070371;28;43026;-82
2023/08/14 08:54:05;;;;;;;;;;;28.20;55.20;;;;;;5064817;28;43174;-84
2023/08/14 08:56:30;;;;;;;;;;;28.00;54.80;;;;;;5066062;28;43718;-81
2023/08/14 08:58:56;;;;;;;;;;;28.10;55.10;;;;;;5068972;28;42930;-83
2023/08/14 09:01:23;;;;;;;;;;;28.20;54.40;;;;;;5073752;27;43405;-82
2023/08/14 09:03:48;;;;;;;;;;;28.30;54.60;;;;;;5065563;28;43237;-82
2023/08/14 09:06:14;;;;;;;;;;;28.00;54.60;;;;;;5062977;28;43503;-81
2023/08/14 09:08:40;;;;;;;;;;;28.20;54.30;;;;;;5072989;28;43006;-82
2023/08/14 09:11:05;;;;;;;;;;;28.80;55.40;;;;;;5051618;28;44247;-81
2023/08/14 09:13:31;;;;;;;;;;;28.30;54.60;;;;;;5046853;28;42948;-83
2023/08/14 09:15:57;;;;;;;;;;;28.10;54.20;;;;;;5046608;28;43447;-86
2023/08/14 09:18:22;;;;;;;;;;;28.30;54.30;;;;;;5070267;28;42940;-87
2023/08/14 09:23:59;;;;;;;;;;;29.90;53.70;;;;;;5068287;28;42980;-84
2023/08/14 09:26:25;;;;;;;;;;;28.20;53.80;;;;;;5065982;28;43897;-83
2023/08/14 09:28:51;;;;;;;;;;;28.20;54.30;;;;;;5067862;28;42987;-86
2023/08/14 09:31:17;;;;;;;;;;;28.50;54.40;;;;;;5064112;28;43617;-83
2023/08/14 09:33:43;;;;;;;;;;;28.20;54.30;;;;;;5073529;28;43163;-83
2023/08/14 09:36:09;;;;;;;;;;;28.10;54.40;;;;;;5061225;28;44600;-84
2023/08/14 09:38:36;;;;;;;;;;;28.60;55.10;;;;;;5070719;28;42865;-83
2023/08/14 09:41:01;;;;;;;;;;;28.10;54.70;;;;;;5057811;28;42881;-86
2023/08/14 09:43:27;;;;;;;;;;;28.20;55.10;;;;;;5043000;28;44124;-89
2023/08/14 09:45:55;;;;;;;;;;;28.20;55.20;;;;;;5060337;28;43082;-82
2023/08/14 09:48:21;;;;;;;;;;;28.20;55.20;;;;;;5056360;28;43247;-86
2023/08/14 09:50:50;;;;;;;;;;;28.40;55.20;;;;;;5062792;28;43065;-83
2023/08/14 09:53:16;;;;;;;;;;;28.60;53.10;;;;;;5075196;28;43271;-84
2023/08/14 09:55:41;;;;;;;;;;;28.60;55.20;;;;;;5065301;28;43101;-85
2023/08/14 09:58:07;;;;;;;;;;;28.50;55.30;;;;;;5065889;28;43057;-83
2023/08/14 10:00:32;;;;;;;;;;;28.60;55.80;;;;;;5057138;28;43346;-81
2023/08/14 10:02:58;;;;;;;;;;;28.40;56.40;;;;;;5069210;28;43339;-83
2023/08/14 10:05:24;;;;;;;;;;;28.30;56.50;;;;;;5066367;28;43048;-83
2023/08/14 10:07:51;;;;;;;;;;;28.30;56.60;;;;;;5065179;28;43014;-83
2023/08/14 10:10:18;;;;;;;;;;;28.40;56.40;;;;;;5072294;28;42936;-82
2023/08/14 10:12:49;;;;;;;;;;;28.30;56.20;;;;;;5066034;28;43022;-82
2023/08/14 10:15:16;;;;;;;;;;;28.20;55.90;;;;;;5063089;28;43023;-79
2023/08/14 10:17:45;;;;;;;;;;;28.20;56.00;;;;;;5062920;28;43017;-80
2023/08/14 10:20:11;;;;;;;;;;;28.40;56.00;;;;;;5066618;28;43498;-84
2023/08/14 10:22:38;;;;;;;;;;;28.50;55.80;;;;;;5067262;28;42987;-80
2023/08/14 10:25:04;;;;;;;;;;;28.20;55.70;;;;;;5063705;28;43424;-80
2023/08/14 10:27:30;;;;;;;;;;;28.30;56.20;;;;;;5070431;28;42975;-86
2023/08/14 10:29:57;;;;;;;;;;;28.50;56.90;;;;;;5070005;28;43337;-95
2023/08/14 10:32:23;;;;;;;;;;;28.50;56.90;;;;;;5063856;28;43011;-80
2023/08/14 10:34:49;;;;;;;;;;;28.20;56.40;;;;;;5068509;28;43507;-81
2023/08/14 10:37:27;;;;;;;;;;;28.40;56.40;;;;;;5063399;28;43012;-85
2023/08/14 10:39:56;;;;;;;;;;;28.40;54.60;;;;;;5058423;28;43447;-79
2023/08/14 10:42:22;;;;;;;;;;;28.40;57.10;;;;;;5062760;28;43160;-83
2023/08/14 10:44:48;;;;;;;;;;;28.60;57.60;;;;;;5057785;28;43099;-89
2023/08/14 10:47:14;;;;;;;;;;;28.60;57.40;;;;;;5058619;28;43255;-84
2023/08/14 10:49:44;;;;;;;;;;;28.40;57.80;;;;;;5057466;28;43675;-89
2023/08/14 10:52:13;;;;;;;;;;;28.40;56.00;;;;;;5056285;28;43150;-80
2023/08/14 10:54:39;;;;;;;;;;;28.30;56.60;;;;;;5057615;28;43189;-81
2023/08/14 10:57:07;;;;;;;;;;;28.40;58.60;;;;;;5059439;28;43097;-90
2023/08/14 10:59:33;;;;;;;;;;;28.20;59.00;;;;;;5061967;28;43267;-94
2023/08/14 11:02:05;;;;;;;;;;;28.50;59.50;;;;;;5049210;28;43370;-84
2023/08/14 11:04:31;;;;;;;;;;;28.60;57.30;;;;;;5065593;28;43608;-90
2023/08/14 11:06:56;;;;;;;;;;;28.20;58.70;;;;;;5065414;28;43269;-92
2023/08/14 11:09:22;;;;;;;;;;;28.60;59.30;;;;;;5056430;28;43089;-92
2023/08/14 11:11:48;;;;;;;;;;;28.40;59.30;;;;;;5057766;28;42763;-81
2023/08/14 11:14:13;;;;;;;;;;;28.40;59.40;;;;;;5069048;28;43402;-82
2023/08/14 11:16:40;;;;;;;;;;;28.60;59.40;;;;;;5062751;28;42978;-82
2023/08/14 11:19:06;;;;;;;;;;;28.60;59.50;;;;;;5065242;28;43348;-95
2023/08/14 11:21:35;;;;;;;;;;;28.60;59.50;;;;;;5062923;28;42996;-94
2023/08/14 11:24:00;;;;;;;;;;;28.60;57.60;;;;;;5066158;28;42829;-94
2023/08/14 11:26:30;;;;;;;;;;;28.70;59.40;;;;;;5065863;28;42963;-94
2023/08/14 11:28:55;;;;;;;;;;;28.60;57.30;;;;;;5064803;28;43086;-90
2023/08/14 11:31:21;;;;;;;;;;;28.60;59.30;;;;;;5073594;28;43073;-83
2023/08/14 11:33:46;;;;;;;;;;;28.60;59.40;;;;;;5065059;28;43705;-86
2023/08/14 11:36:12;;;;;;;;;;;28.70;59.30;;;;;;5061849;28;43034;-88
2023/08/14 11:38:37;;;;;;;;;;;28.80;59.10;;;;;;5062256;28;43770;-86
2023/08/14 11:41:03;;;;;;;;;;;28.70;59.10;;;;;;5067511;28;43163;-93
2023/08/14 11:43:29;;;;;;;;;;;28.60;59.10;;;;;;5068350;28;44201;-82
2023/08/14 11:45:55;;;;;;;;;;;28.60;59.30;;;;;;5066471;28;42899;-81
2023/08/14 11:48:20;;;;;;;;;;;29.10;59.00;;;;;;5076695;28;43081;-83
2023/08/14 11:50:47;;;;;;;;;;;28.60;58.60;;;;;;5059788;28;43255;-82
2023/08/14 11:53:12;;;;;;;;;;;28.60;58.00;;;;;;5068690;28;42938;-81
2023/08/14 11:55:38;;;;;;;;;;;28.60;58.40;;;;;;5056729;28;43342;-89
2023/08/14 11:58:04;;;;;;;;;;;28.50;58.00;;;;;;5060158;28;43014;-82
2023/08/14 12:00:29;;;;;;;;;;;28.80;58.10;;;;;;5065469;28;43212;-86
2023/08/14 12:02:55;;;;;;;;;;;28.70;58.60;;;;;;5069871;28;43072;-94
2023/08/14 12:05:21;;;;;;;;;;;28.60;58.60;;;;;;5071046;28;42872;-83
2023/08/14 12:07:46;;;;;;;;;;;28.70;58.60;;;;;;5066844;28;43129;-82
2023/08/14 12:10:14;;;;;;;;;;;28.60;58.50;;;;;;5068010;28;43204;-92
2023/08/14 12:12:40;;;;;;;;;;;28.50;58.00;;;;;;5062905;28;44190;-81
2023/08/14 12:15:05;;;;;;;;;;;28.50;58.30;;;;;;5073178;28;42906;-82
2023/08/14 12:17:31;;;;;;;;;;;28.60;57.90;;;;;;5062944;28;43544;-86
2023/08/14 12:20:03;;;;;;;;;;;28.60;58.70;;;;;;5069933;28;43749;-80
2023/08/14 12:22:31;;;;;;;;;;;28.60;58.60;;;;;;5073865;28;42820;-79
2023/08/14 12:24:57;;;;;;;;;;;28.60;59.00;;;;;;5081752;28;43270;-79
2023/08/14 12:27:26;;;;;;;;;;;28.60;59.20;;;;;;5055115;28;44278;-85
2023/08/14 12:29:52;;;;;;;;;;;28.70;59.40;;;;;;5078350;28;43068;-80
2023/08/14 12:32:18;;;;;;;;;;;28.40;59.10;;;;;;5061465;28;43925;-80
2023/08/14 12:34:44;;;;;;;;;;;28.70;59.70;;;;;;5071332;28;42773;-79
2023/08/14 12:37:14;;;;;;;;;;;28.90;60.10;;;;;;5068000;28;43554;-80
2023/08/14 12:39:52;;;;;;;;;;;28.60;59.00;;;;;;5076386;28;43268;-79
2023/08/14 12:42:18;;;;;;;;;;;28.70;59.80;;;;;;5074911;28;43494;-83
2023/08/14 12:44:44;;;;;;;;;;;28.90;59.50;;;;;;5053931;28;43090;-95
2023/08/14 12:47:10;;;;;;;;;;;28.90;59.50;;;;;;5069567;28;42897;-81
2023/08/14 12:49:36;;;;;;;;;;;28.80;59.60;;;;;;5053888;28;43047;-90
2023/08/14 12:52:02;;;;;;;;;;;28.80;59.70;;;;;;5067686;28;43196;-81
2023/08/14 12:54:28;;;;;;;;;;;28.90;59.60;;;;;;5066882;28;42922;-84
2023/08/14 12:56:53;;;;;;;;;;;28.70;59.60;;;;;;5071001;28;42813;-80
2023/08/14 12:59:19;;;;;;;;;;;28.80;59.70;;;;;;5081390;28;42869;-83
2023/08/14 13:01:45;;;;;;;;;;;28.80;60.00;;;;;;5067731;28;43260;-82
2023/08/14 13:04:10;;;;;;;;;;;29.00;59.70;;;;;;5067543;28;42930;-91
2023/08/14 13:06:37;;;;;;;;;;;28.70;59.80;;;;;;5068583;28;43008;-81
2023/08/14 13:09:02;;;;;;;;;;;28.90;60.00;;;;;;5067228;28;43063;-82
2023/08/14 13:11:28;;;;;;;;;;;28.50;59.40;;;;;;5067623;28;43497;-82
2023/08/14 13:13:54;;;;;;;;;;;28.80;59.70;;;;;;5066817;28;43735;-81
2023/08/14 13:16:19;;;;;;;;;;;28.90;59.90;;;;;;5064291;28;45300;-95
2023/08/14 13:18:45;;;;;;;;;;;28.90;59.40;;;;;;5063185;28;42950;-87
2023/08/14 13:21:11;;;;;;;;;;;28.90;59.70;;;;;;5055153;28;43057;-82
2023/08/14 13:23:36;;;;;;;;;;;28.80;59.70;;;;;;5066160;28;42714;-80
2023/08/14 13:26:02;;;;;;;;;;;28.90;60.00;;;;;;5062553;28;42982;-93
2023/08/14 13:28:28;;;;;;;;;;;29.40;60.40;;;;;;5062557;28;42963;-82
2023/08/14 13:30:54;;;;;;;;;;;28.90;60.30;;;;;;5077621;28;43448;-80
2023/08/14 13:33:19;;;;;;;;;;;28.80;59.90;;;;;;5053254;28;43013;-79
2023/08/14 13:35:45;;;;;;;;;;;28.80;59.80;;;;;;5067814;28;42963;-81
2023/08/14 13:38:11;;;;;;;;;;;28.90;60.20;;;;;;5064262;28;43060;-80
2023/08/14 13:40:36;;;;;;;;;;;28.80;59.90;;;;;;5074180;28;43561;-86
2023/08/14 13:43:02;;;;;;;;;;;28.90;60.10;;;;;;5072332;28;43067;-82
2023/08/14 13:45:29;;;;;;;;;;;29.50;60.40;;;;;;5050192;28;42994;-83
2023/08/14 13:47:55;;;;;;;;;;;28.80;60.20;;;;;;5045789;28;42874;-86
2023/08/14 13:50:28;;;;;;;;;;;28.80;59.90;;;;;;5064251;28;43857;-79
2023/08/14 13:52:53;;;;;;;;;;;28.80;57.90;;;;;;5037850;28;42981;-81
2023/08/14 13:55:19;;;;;;;;;;;28.90;59.60;;;;;;5062510;28;43658;-79
2023/08/14 13:57:45;;;;;;;;;;;29.00;59.30;;;;;;5066383;28;43074;-78
2023/08/14 14:00:10;;;;;;;;;;;28.90;59.40;;;;;;5064220;28;43552;-81
2023/08/14 14:02:36;;;;;;;;;;;28.90;59.20;;;;;;5062560;28;42938;-85
2023/08/14 14:05:02;;;;;;;;;;;29.00;59.30;;;;;;5068702;28;42958;-80
2023/08/14 14:07:27;;;;;;;;;;;28.90;59.00;;;;;;5063830;28;43011;-84
2023/08/14 14:09:53;;;;;;;;;;;28.90;59.40;;;;;;5065296;28;43960;-81
2023/08/14 14:12:18;;;;;;;;;;;28.80;59.10;;;;;;5061600;28;43022;-78
2023/08/14 14:14:44;;;;;;;;;;;29.00;59.20;;;;;;5075126;28;43095;-78
2023/08/14 14:17:09;;;;;;;;;;;29.10;59.60;;;;;;5064757;28;43482;-80